createdAt,value
2022-12-27T00:03:36.363Z,102072.34
2022-12-27T00:08:40.225Z,102080.00
2022-12-27T00:13:45.671Z,102080.72
2022-12-27T00:18:50.815Z,102082.25
2022-12-27T00:23:56.593Z,102091.56
2022-12-27T00:29:02.531Z,102085.09
2022-12-27T00:34:08.103Z,102085.22
2022-12-27T00:39:12.142Z,102097.53
2022-12-27T00:44:17.901Z,102090.34
2022-12-27T00:49:21.622Z,102079.09
2022-12-27T00:54:25.293Z,102089.72
2022-12-27T00:59:30.355Z,102097.09
2022-12-27T01:04:34.128Z,102113.19
2022-12-27T01:09:37.877Z,102111.09
2022-12-27T01:14:43.010Z,102118.75
2022-12-27T01:19:46.776Z,102132.41
2022-12-27T01:24:50.544Z,102128.66
2022-12-27T01:29:55.617Z,102130.78
2022-12-27T01:34:59.293Z,102125.69
2022-12-27T01:40:03.118Z,102133.34
2022-12-27T01:45:16.270Z,102149.38
2022-12-27T01:50:26.665Z,102156.75
2022-12-27T01:55:35.067Z,102164.88
2022-12-27T02:00:43.916Z,102169.66
2022-12-27T02:05:47.980Z,102170.72
2022-12-27T02:10:52.497Z,102170.44
2022-12-27T02:15:57.541Z,102170.56
2022-12-27T02:21:25.544Z,102162.44
2022-12-27T02:26:50.029Z,102176.13
2022-12-27T02:32:04.137Z,102182.56
2022-12-27T02:37:12.067Z,102187.09
2022-12-27T02:42:35.559Z,102192.34
2022-12-27T02:48:00.688Z,102197.47
2022-12-27T02:53:13.826Z,102198.19
2022-12-27T02:58:29.383Z,102206.00
2022-12-27T03:03:48.252Z,102206.19
2022-12-27T03:08:59.157Z,102215.78
2022-12-27T03:14:25.843Z,102205.41
2022-12-27T03:19:56.684Z,102199.84
2022-12-27T03:25:20.551Z,102211.12
2022-12-27T03:30:42.110Z,102213.09
2022-12-27T03:36:08.384Z,102226.44
2022-12-27T03:41:36.236Z,102244.78
2022-12-27T03:46:43.528Z,102239.69
2022-12-27T03:51:52.721Z,102241.31
2022-12-27T03:56:58.340Z,102247.34
2022-12-27T04:02:03.152Z,102244.78
2022-12-27T04:07:08.607Z,102247.34
2022-12-27T04:12:29.961Z,102245.34
2022-12-27T04:17:51.458Z,102254.09
2022-12-27T04:23:14.105Z,102254.38
2022-12-27T04:28:35.457Z,102274.66
2022-12-27T04:33:57.024Z,102281.75
2022-12-27T04:39:02.167Z,102272.41
2022-12-27T04:44:23.884Z,102287.13
2022-12-27T04:49:46.144Z,102270.87
2022-12-27T04:55:00.117Z,102260.66
2022-12-27T05:00:21.586Z,102250.47
2022-12-27T05:05:26.349Z,102257.06
2022-12-27T05:10:49.056Z,102264.56
2022-12-27T05:15:52.960Z,102274.63
2022-12-27T05:20:56.923Z,102284.41
2022-12-27T05:26:02.013Z,102306.66
2022-12-27T05:31:06.562Z,102308.78
2022-12-27T05:36:11.258Z,102314.91
2022-12-27T05:41:16.502Z,102311.00
2022-12-27T05:46:22.088Z,102323.19
2022-12-27T05:51:25.848Z,102333.41
2022-12-27T05:56:30.921Z,102345.44
2022-12-27T06:01:35.208Z,102329.97
2022-12-27T06:06:38.995Z,102318.06
2022-12-27T06:11:44.196Z,102323.81
2022-12-27T06:16:48.278Z,102315.41
2022-12-27T06:21:52.083Z,102321.25
2022-12-27T06:26:57.155Z,102334.19
2022-12-27T06:32:01.255Z,102329.94
2022-12-27T06:37:05.005Z,102342.56
2022-12-27T06:42:10.127Z,102353.09
2022-12-27T06:47:13.853Z,102349.91
2022-12-27T06:52:17.582Z,102342.84
2022-12-27T06:57:22.690Z,102345.81
2022-12-27T07:02:26.510Z,102342.22
2022-12-27T07:07:30.350Z,102353.78
2022-12-27T07:12:36.933Z,102359.31
2022-12-27T07:17:40.815Z,102364.88
2022-12-27T07:22:45.014Z,102372.97
2022-12-27T07:27:50.113Z,102378.97
2022-12-27T07:32:53.857Z,102373.72
2022-12-27T07:37:57.537Z,102363.94
2022-12-27T07:43:02.609Z,102369.22
2022-12-27T07:48:06.847Z,102372.19
2022-12-27T07:53:10.576Z,102378.19
2022-12-27T07:58:15.752Z,102388.72
2022-12-27T08:03:20.361Z,102394.59
2022-12-27T08:08:27.958Z,102397.13
2022-12-27T08:13:33.061Z,102392.50
2022-12-27T08:18:36.821Z,102390.53
2022-12-27T08:23:40.821Z,102396.25
2022-12-27T08:28:45.985Z,102408.59
2022-12-27T08:33:56.534Z,102407.09
2022-12-27T08:39:02.142Z,102408.91
2022-12-27T08:44:07.517Z,102410.25
2022-12-27T08:49:11.234Z,102405.78
2022-12-27T08:54:14.991Z,102394.56
2022-12-27T08:59:20.052Z,102396.63
2022-12-27T09:04:24.021Z,102399.81
2022-12-27T09:09:27.755Z,102393.22
2022-12-27T09:14:32.817Z,102392.75
2022-12-27T09:19:37.086Z,102401.50
2022-12-27T09:24:40.874Z,102415.94
2022-12-27T09:29:48.478Z,102420.19
2022-12-27T09:34:52.440Z,102415.69
2022-12-27T09:39:57.035Z,102420.34
2022-12-27T09:45:09.897Z,102411.31
2022-12-27T09:50:17.957Z,102404.09
2022-12-27T09:55:33.281Z,102407.34
2022-12-27T10:00:44.202Z,102417.75
2022-12-27T10:05:56.386Z,102411.97
2022-12-27T10:11:08.688Z,102415.81
2022-12-27T10:16:27.432Z,102402.97
2022-12-27T10:21:36.429Z,102397.31
2022-12-27T10:26:40.263Z,102396.78
2022-12-27T10:31:46.380Z,102405.00
2022-12-27T10:36:50.213Z,102404.41
2022-12-27T10:42:02.318Z,102400.06
2022-12-27T10:47:07.678Z,102397.56
2022-12-27T10:52:18.957Z,102388.63
2022-12-27T10:57:28.769Z,102388.69
2022-12-27T11:02:34.255Z,102383.00
2022-12-27T11:07:38.085Z,102384.66
2022-12-27T11:12:56.195Z,102374.19
2022-12-27T11:18:02.444Z,102377.94
2022-12-27T11:23:14.463Z,102388.31
2022-12-27T11:28:27.049Z,102389.97
2022-12-27T11:33:37.639Z,102386.84
2022-12-27T11:38:47.523Z,102374.94
2022-12-27T11:43:55.571Z,102374.41
2022-12-27T11:49:02.289Z,102359.19
2022-12-27T11:54:31.591Z,102362.44
2022-12-27T11:59:54.094Z,102352.22
2022-12-27T12:05:39.025Z,102339.09
2022-12-27T12:10:52.091Z,102341.41
2022-12-27T12:16:24.101Z,102331.28
2022-12-27T12:21:34.537Z,102322.81
2022-12-27T12:26:54.194Z,102322.94
2022-12-27T12:32:30.631Z,102327.69
2022-12-27T12:37:53.916Z,102313.25
2022-12-27T12:43:11.667Z,102309.91
2022-12-27T12:48:32.373Z,102291.94
2022-12-27T12:53:51.975Z,102283.41
2022-12-27T12:59:11.537Z,102275.94
2022-12-27T13:04:32.691Z,102264.47
2022-12-27T13:09:48.494Z,102255.09
2022-12-27T13:15:25.707Z,102246.09
2022-12-27T13:20:51.462Z,102242.25
2022-12-27T13:26:06.132Z,102243.06
2022-12-27T13:31:27.737Z,102220.75
2022-12-27T13:36:40.921Z,102217.72
2022-12-27T13:42:05.629Z,102221.81
2022-12-27T13:47:41.510Z,102194.34
2022-12-27T13:53:00.490Z,102187.69
2022-12-27T13:58:30.133Z,102185.13
2022-12-27T14:03:55.869Z,102197.47
2022-12-27T14:09:27.933Z,102194.78
2022-12-27T14:14:33.063Z,102189.16
2022-12-27T14:20:03.663Z,102181.56
2022-12-27T14:25:37.140Z,102187.06
2022-12-27T14:31:28.141Z,102173.81
2022-12-27T14:37:14.837Z,102174.19
2022-12-27T14:42:57.547Z,102160.69
2022-12-27T14:48:40.394Z,102152.44
2022-12-27T14:54:38.501Z,102157.88
2022-12-27T14:59:48.367Z,102154.38
2022-12-27T15:05:05.160Z,102145.41
2022-12-27T15:10:16.967Z,102136.78
2022-12-27T15:15:29.738Z,102137.75
2022-12-27T15:20:53.088Z,102144.97
2022-12-27T15:26:12.425Z,102133.78
2022-12-27T15:31:33.655Z,102141.63
2022-12-27T15:36:40.352Z,102128.78
2022-12-27T15:41:59.861Z,102124.69
2022-12-27T15:47:48.838Z,102123.56
2022-12-27T15:53:11.308Z,102125.75
2022-12-27T15:58:16.658Z,102119.94
2022-12-27T16:03:36.579Z,102121.72
2022-12-27T16:08:42.541Z,102117.66
2022-12-27T16:13:51.044Z,102113.69
2022-12-27T16:19:12.030Z,102112.53
2022-12-27T16:24:20.475Z,102102.13
2022-12-27T16:29:32.606Z,102098.81
2022-12-27T16:34:44.124Z,102089.19
2022-12-27T16:40:07.378Z,102098.81
2022-12-27T16:45:33.125Z,102092.91
2022-12-27T16:50:54.437Z,102082.75
2022-12-27T16:56:17.376Z,102092.75
2022-12-27T17:02:03.016Z,102081.06
2022-12-27T17:07:06.880Z,102084.03
2022-12-27T17:12:26.472Z,102080.72
2022-12-27T17:17:31.143Z,102078.41
2022-12-27T17:22:35.983Z,102078.13
2022-12-27T17:28:06.442Z,102075.44
2022-12-27T17:33:22.283Z,102068.28
2022-12-27T17:38:36.684Z,102061.47
2022-12-27T17:44:12.277Z,102058.75
2022-12-27T17:49:17.475Z,102050.69
2022-12-27T17:54:42.847Z,102039.28
2022-12-27T17:59:51.613Z,102045.19
2022-12-27T18:04:57.500Z,102031.06
2022-12-27T18:10:04.627Z,102023.00
2022-12-27T18:15:16.612Z,102024.38
2022-12-27T18:20:31.992Z,102016.03
2022-12-27T18:25:40.286Z,102010.03
2022-12-27T18:30:48.997Z,102005.53
2022-12-27T18:35:53.474Z,101996.31
2022-12-27T18:41:03.699Z,101985.81
2022-12-27T18:46:14.725Z,101974.50
2022-12-27T18:51:18.851Z,101978.38
2022-12-27T18:56:30.502Z,101968.38
2022-12-27T19:01:43.084Z,101971.03
2022-12-27T19:06:54.364Z,101953.34
2022-12-27T19:12:01.508Z,101954.66
2022-12-27T19:17:10.946Z,101945.78
2022-12-27T19:22:34.729Z,101939.38
2022-12-27T19:27:38.604Z,101929.38
2022-12-27T19:32:43.734Z,101919.00
2022-12-27T19:37:47.600Z,101918.34
2022-12-27T19:42:51.401Z,101911.94
2022-12-27T19:47:56.521Z,101911.94
2022-12-27T19:53:00.764Z,101894.78
2022-12-27T19:58:04.538Z,101889.12
2022-12-27T20:03:10.852Z,101887.22
2022-12-27T20:08:25.246Z,101880.16
2022-12-27T20:13:29.763Z,101869.66
2022-12-27T20:18:34.920Z,101868.00
2022-12-27T20:23:38.759Z,101855.19
2022-12-27T20:28:42.513Z,101849.16
2022-12-27T20:33:51.868Z,101832.50
2022-12-27T20:38:55.617Z,101838.50
2022-12-27T20:43:59.918Z,101807.09
2022-12-27T20:49:05.056Z,101796.47
2022-12-27T20:54:08.932Z,101782.63
2022-12-27T20:59:12.707Z,101794.66
2022-12-27T21:04:17.810Z,101778.63
2022-12-27T21:09:21.586Z,101783.09
2022-12-27T21:14:25.304Z,101778.91
2022-12-27T21:19:30.812Z,101762.97
2022-12-27T21:24:34.665Z,101758.72
2022-12-27T21:29:38.479Z,101753.72
2022-12-27T21:34:43.575Z,101745.28
2022-12-27T21:39:47.393Z,101743.34
2022-12-27T21:44:51.486Z,101747.19
2022-12-27T21:49:56.873Z,101735.50
2022-12-27T21:55:00.611Z,101738.72
2022-12-27T22:00:05.373Z,101729.47
2022-12-27T22:05:10.810Z,101713.06
2022-12-27T22:10:14.655Z,101705.88
2022-12-27T22:15:18.433Z,101699.94
2022-12-27T22:20:23.553Z,101691.37
2022-12-27T22:25:27.321Z,101680.44
2022-12-27T22:30:31.082Z,101664.41
2022-12-27T22:35:36.186Z,101655.91
2022-12-27T22:40:46.172Z,101647.91
2022-12-27T22:45:53.886Z,101646.50
2022-12-27T22:50:59.247Z,101640.72
2022-12-27T22:56:03.044Z,101625.69
2022-12-27T23:01:11.901Z,101616.06
2022-12-27T23:06:17.885Z,101600.25
2022-12-27T23:11:23.866Z,101587.28
2022-12-27T23:16:27.804Z,101578.81
2022-12-27T23:21:32.965Z,101568.66
2022-12-27T23:26:36.996Z,101556.50
2022-12-27T23:31:54.850Z,101552.37
2022-12-27T23:37:01.300Z,101549.94
2022-12-27T23:42:05.151Z,101551.84
2022-12-27T23:47:08.950Z,101544.22
2022-12-27T23:52:14.149Z,101522.16
2022-12-27T23:57:20.345Z,101509.44
